createdAt,value
2023-01-08T00:01:18.546Z,84.68
2023-01-08T00:03:46.018Z,84.57
2023-01-08T00:06:15.474Z,84.53
2023-01-08T00:08:42.526Z,83.51
2023-01-08T00:11:13.493Z,84.51
2023-01-08T00:13:40.364Z,84.82
2023-01-08T00:16:09.613Z,85.96
2023-01-08T00:18:36.480Z,84.30
2023-01-08T00:21:04.368Z,84.25
2023-01-08T00:23:31.625Z,85.45
2023-01-08T00:26:01.286Z,85.07
2023-01-08T00:28:30.387Z,84.91
2023-01-08T00:30:57.348Z,84.92
2023-01-08T00:33:24.287Z,85.06
2023-01-08T00:35:51.101Z,83.38
2023-01-08T00:38:18.059Z,85.95
2023-01-08T00:40:44.848Z,85.07
2023-01-08T00:43:11.748Z,86.69
2023-01-08T00:45:39.877Z,86.99
2023-01-08T00:48:07.776Z,87.22
2023-01-08T00:50:34.521Z,87.11
2023-01-08T00:53:01.791Z,86.94
2023-01-08T00:55:28.679Z,86.34
2023-01-08T00:57:55.667Z,86.06
2023-01-08T01:00:22.657Z,85.24
2023-01-08T01:02:50.867Z,84.17
2023-01-08T01:05:19.358Z,86.67
2023-01-08T01:07:46.514Z,85.83
2023-01-08T01:10:15.795Z,86.87
2023-01-08T01:12:43.092Z,86.76
2023-01-08T01:15:12.357Z,86.34
2023-01-08T01:17:40.080Z,86.47
2023-01-08T01:20:10.991Z,86.09
2023-01-08T01:22:38.463Z,85.63
2023-01-08T01:25:06.668Z,85.63
2023-01-08T01:27:33.463Z,86.32
2023-01-08T01:30:03.653Z,86.06
2023-01-08T01:32:30.483Z,86.13
2023-01-08T01:34:57.409Z,86.50
2023-01-08T01:37:25.601Z,85.57
2023-01-08T01:39:52.347Z,83.47
2023-01-08T01:42:20.334Z,84.64
2023-01-08T01:44:49.697Z,84.70
2023-01-08T01:47:24.009Z,85.03
2023-01-08T01:49:57.820Z,84.63
2023-01-08T01:52:30.347Z,83.89
2023-01-08T01:55:01.014Z,84.35
2023-01-08T01:57:28.964Z,85.04
2023-01-08T01:59:58.967Z,84.30
2023-01-08T02:02:26.117Z,84.57
2023-01-08T02:04:53.179Z,83.46
2023-01-08T02:07:32.148Z,83.63
2023-01-08T02:10:07.447Z,83.96
2023-01-08T02:12:38.805Z,83.79
2023-01-08T02:15:12.975Z,85.50
2023-01-08T02:17:44.367Z,84.57
2023-01-08T02:20:15.919Z,84.39
2023-01-08T02:23:06.516Z,84.98
2023-01-08T02:25:51.290Z,85.07
2023-01-08T02:28:19.171Z,85.83
2023-01-08T02:30:46.202Z,85.40
2023-01-08T02:33:14.579Z,84.87
2023-01-08T02:35:44.943Z,86.13
2023-01-08T02:38:14.575Z,85.46
2023-01-08T02:40:52.793Z,84.70
2023-01-08T02:43:26.811Z,83.69
2023-01-08T02:45:58.261Z,85.58
2023-01-08T02:48:33.784Z,87.33
2023-01-08T02:51:06.217Z,85.53
2023-01-08T02:53:37.637Z,84.17
2023-01-08T02:56:09.511Z,84.22
2023-01-08T02:58:38.811Z,84.82
2023-01-08T03:01:09.325Z,84.64
2023-01-08T03:03:38.760Z,84.54
2023-01-08T03:06:09.140Z,86.25
2023-01-08T03:08:39.967Z,86.80
2023-01-08T03:11:11.548Z,87.00
2023-01-08T03:13:42.543Z,85.96
2023-01-08T03:16:14.527Z,86.71
2023-01-08T03:18:46.992Z,86.42
2023-01-08T03:21:16.543Z,87.45
2023-01-08T03:23:47.257Z,87.94
2023-01-08T03:26:21.677Z,88.27
2023-01-08T03:28:52.996Z,88.51
2023-01-08T03:31:22.961Z,87.76
2023-01-08T03:33:50.545Z,87.49
2023-01-08T03:36:24.271Z,86.68
2023-01-08T03:38:59.712Z,86.27
2023-01-08T03:41:31.643Z,86.24
2023-01-08T03:43:58.589Z,85.98
2023-01-08T03:46:31.680Z,85.79
2023-01-08T03:49:00.019Z,85.99
2023-01-08T03:51:27.437Z,86.55
2023-01-08T03:53:58.736Z,87.22
2023-01-08T03:56:27.179Z,88.26
2023-01-08T03:58:54.025Z,88.82
2023-01-08T04:01:22.084Z,88.38
2023-01-08T04:03:48.875Z,89.03
2023-01-08T04:06:18.731Z,89.52
2023-01-08T04:08:47.613Z,89.64
2023-01-08T04:11:15.486Z,88.42
2023-01-08T04:13:43.743Z,88.21
2023-01-08T04:16:11.979Z,89.97
2023-01-08T04:18:38.936Z,88.64
2023-01-08T04:21:07.262Z,89.47
2023-01-08T04:23:34.067Z,90.08
2023-01-08T04:26:04.690Z,90.42
2023-01-08T04:28:31.510Z,90.54
2023-01-08T04:30:59.804Z,91.04
2023-01-08T04:33:26.995Z,90.39
2023-01-08T04:35:53.888Z,90.60
2023-01-08T04:38:24.491Z,90.91
2023-01-08T04:40:56.592Z,90.93
2023-01-08T04:43:23.565Z,90.98
2023-01-08T04:45:50.330Z,91.39
2023-01-08T04:48:20.108Z,91.59
2023-01-08T04:50:46.851Z,91.68
2023-01-08T04:53:15.026Z,92.12
2023-01-08T04:55:41.783Z,92.31
2023-01-08T04:58:09.006Z,92.67
2023-01-08T05:00:36.167Z,92.45
2023-01-08T05:03:03.009Z,92.84
2023-01-08T05:05:31.249Z,93.62
2023-01-08T05:07:59.149Z,93.30
2023-01-08T05:10:26.044Z,93.82
2023-01-08T05:12:53.133Z,94.28
2023-01-08T05:15:19.884Z,94.32
2023-01-08T05:17:47.906Z,95.39
2023-01-08T05:20:14.810Z,96.37
2023-01-08T05:22:43.074Z,96.17
2023-01-08T05:25:10.188Z,95.97
2023-01-08T05:27:36.980Z,95.46
2023-01-08T05:30:07.328Z,95.40
2023-01-08T05:32:35.497Z,97.76
2023-01-08T05:35:02.604Z,94.68
2023-01-08T05:37:29.344Z,94.46
2023-01-08T05:39:57.720Z,96.11
2023-01-08T05:42:24.843Z,96.57
2023-01-08T05:44:52.712Z,97.02
2023-01-08T05:47:19.468Z,96.48
2023-01-08T05:49:46.311Z,95.54
2023-01-08T05:52:13.148Z,95.64
2023-01-08T05:54:39.929Z,93.40
2023-01-08T05:57:08.095Z,93.96
2023-01-08T05:59:34.986Z,92.19
2023-01-08T06:02:02.864Z,92.42
2023-01-08T06:04:31.067Z,92.31
2023-01-08T06:06:59.011Z,93.81
2023-01-08T06:09:26.084Z,94.05
2023-01-08T06:11:52.984Z,93.36
2023-01-08T06:14:21.119Z,93.57
2023-01-08T06:16:48.108Z,94.17
2023-01-08T06:19:15.985Z,94.42
2023-01-08T06:21:44.024Z,96.84
2023-01-08T06:24:10.898Z,96.53
2023-01-08T06:26:38.850Z,96.59
2023-01-08T06:29:05.678Z,97.75
2023-01-08T06:31:34.061Z,96.22
2023-01-08T06:34:01.883Z,96.46
2023-01-08T06:36:31.532Z,96.56
2023-01-08T06:38:58.311Z,95.30
2023-01-08T06:41:25.525Z,94.58
2023-01-08T06:43:52.520Z,94.77
2023-01-08T06:46:19.535Z,97.41
2023-01-08T06:48:48.796Z,97.75
2023-01-08T06:51:19.143Z,97.91
2023-01-08T06:53:47.900Z,97.40
2023-01-08T06:56:14.741Z,97.21
2023-01-08T06:58:42.911Z,96.04
2023-01-08T07:01:14.298Z,96.66
2023-01-08T07:03:42.993Z,96.14
2023-01-08T07:06:16.784Z,96.50
2023-01-08T07:08:45.035Z,97.06
2023-01-08T07:11:12.609Z,97.10
2023-01-08T07:13:39.609Z,97.75
2023-01-08T07:16:06.980Z,96.11
2023-01-08T07:18:34.179Z,97.18
2023-01-08T07:21:01.423Z,96.95
2023-01-08T07:23:29.917Z,97.12
2023-01-08T07:26:00.644Z,96.99
2023-01-08T07:28:27.659Z,95.34
2023-01-08T07:30:54.450Z,94.29
2023-01-08T07:33:22.782Z,94.79
2023-01-08T07:35:53.204Z,94.57
2023-01-08T07:38:21.324Z,94.53
2023-01-08T07:40:53.233Z,95.63
2023-01-08T07:43:20.278Z,95.66
2023-01-08T07:45:48.485Z,96.08
2023-01-08T07:48:15.251Z,97.00
2023-01-08T07:50:43.257Z,98.50
2023-01-08T07:53:11.420Z,99.78
2023-01-08T07:55:38.469Z,100.00
2023-01-08T07:58:13.502Z,99.07
2023-01-08T08:00:42.312Z,98.04
2023-01-08T08:03:12.691Z,98.08
2023-01-08T08:05:40.837Z,97.22
2023-01-08T08:08:08.659Z,95.25
2023-01-08T08:10:36.112Z,94.56
2023-01-08T08:13:03.107Z,93.45
2023-01-08T08:15:31.320Z,92.77
2023-01-08T08:17:58.089Z,93.62
2023-01-08T08:20:27.156Z,92.65
2023-01-08T08:23:01.146Z,89.71
2023-01-08T08:25:28.104Z,89.43
2023-01-08T08:27:56.734Z,88.20
2023-01-08T08:30:24.918Z,88.63
2023-01-08T08:32:53.344Z,90.94
2023-01-08T08:35:24.196Z,89.37
2023-01-08T08:37:51.327Z,90.43
2023-01-08T08:40:19.457Z,92.22
2023-01-08T08:42:48.817Z,92.14
2023-01-08T08:45:15.881Z,92.81
2023-01-08T08:47:42.654Z,94.56
2023-01-08T08:50:14.845Z,89.00
2023-01-08T08:52:42.925Z,87.53
2023-01-08T08:55:12.433Z,88.36
2023-01-08T08:57:40.493Z,84.10
2023-01-08T09:00:08.393Z,85.73
2023-01-08T09:02:35.573Z,85.97
2023-01-08T09:05:02.485Z,82.81
2023-01-08T09:07:30.723Z,82.74
2023-01-08T09:09:59.055Z,82.21
2023-01-08T09:12:27.040Z,81.53
2023-01-08T09:14:55.419Z,79.46
2023-01-08T09:17:22.566Z,76.09
2023-01-08T09:19:49.754Z,74.91
2023-01-08T09:22:16.543Z,73.78
2023-01-08T09:24:44.776Z,72.02
2023-01-08T09:27:11.820Z,72.41
2023-01-08T09:29:38.841Z,72.25
2023-01-08T09:32:06.218Z,71.72
2023-01-08T09:34:33.365Z,70.82
2023-01-08T09:37:00.286Z,70.40
2023-01-08T09:39:30.134Z,69.49
2023-01-08T09:42:01.074Z,70.53
2023-01-08T09:44:34.107Z,68.18
2023-01-08T09:47:01.372Z,67.40
2023-01-08T09:49:37.640Z,68.93
2023-01-08T09:52:13.808Z,68.72
2023-01-08T09:54:44.569Z,68.52
2023-01-08T09:57:17.111Z,68.08
2023-01-08T09:59:44.635Z,67.21
2023-01-08T10:02:15.325Z,66.59
2023-01-08T10:04:43.876Z,66.91
2023-01-08T10:07:18.171Z,68.15
2023-01-08T10:09:46.390Z,67.81
2023-01-08T10:12:24.773Z,66.17
2023-01-08T10:17:37.055Z,65.78
2023-01-08T10:20:12.208Z,66.05
2023-01-08T10:22:41.655Z,64.98
2023-01-08T10:25:11.832Z,66.28
2023-01-08T10:27:48.363Z,66.20
2023-01-08T10:30:17.472Z,66.22
2023-01-08T10:32:48.517Z,66.06
2023-01-08T10:35:22.271Z,66.04
2023-01-08T10:37:49.150Z,66.31
2023-01-08T10:40:26.392Z,66.50
2023-01-08T10:42:56.341Z,66.48
2023-01-08T10:45:26.015Z,68.24
2023-01-08T10:47:57.016Z,69.02
2023-01-08T10:50:29.114Z,68.98
2023-01-08T10:52:58.018Z,68.17
2023-01-08T10:55:28.633Z,67.57
2023-01-08T10:58:01.916Z,65.96
2023-01-08T11:00:30.356Z,66.36
2023-01-08T11:03:01.609Z,66.44
2023-01-08T11:05:31.187Z,66.13
2023-01-08T11:08:01.997Z,67.20
2023-01-08T11:10:29.902Z,66.92
2023-01-08T11:13:04.998Z,67.15
2023-01-08T11:15:36.318Z,66.91
2023-01-08T11:18:12.796Z,66.81
2023-01-08T11:20:40.339Z,66.45
2023-01-08T11:23:16.817Z,65.84
2023-01-08T11:25:49.057Z,66.76
2023-01-08T11:28:25.336Z,67.03
2023-01-08T11:31:00.849Z,66.42
2023-01-08T11:33:34.040Z,67.21
2023-01-08T11:36:09.372Z,66.91
2023-01-08T11:38:38.298Z,68.05
2023-01-08T11:41:19.828Z,66.66
2023-01-08T11:44:06.088Z,66.10
2023-01-08T11:46:42.075Z,65.84
2023-01-08T11:49:28.444Z,66.24
2023-01-08T11:52:15.660Z,66.62
2023-01-08T11:55:13.613Z,65.05
2023-01-08T11:57:56.830Z,66.66
2023-01-08T12:00:38.256Z,68.14
2023-01-08T12:03:16.269Z,67.38
2023-01-08T12:05:47.982Z,67.43
2023-01-08T12:08:24.164Z,67.10
2023-01-08T12:11:03.216Z,67.29
2023-01-08T12:13:58.285Z,68.34
2023-01-08T12:16:44.133Z,70.13
2023-01-08T12:19:20.729Z,67.11
2023-01-08T12:22:01.479Z,67.31
2023-01-08T12:24:51.070Z,66.86
2023-01-08T12:27:54.673Z,65.02
2023-01-08T12:30:25.428Z,64.50
2023-01-08T12:32:58.366Z,65.04
2023-01-08T12:35:30.041Z,64.11
2023-01-08T12:38:07.260Z,64.05
2023-01-08T12:40:39.577Z,62.37
2023-01-08T12:43:15.082Z,62.48
2023-01-08T12:45:46.911Z,61.04
2023-01-08T12:48:19.641Z,61.18
2023-01-08T12:50:57.603Z,60.82
2023-01-08T12:53:38.326Z,60.07
2023-01-08T12:56:11.231Z,60.38
2023-01-08T12:58:50.366Z,60.10
2023-01-08T13:01:29.577Z,60.35
2023-01-08T13:03:59.140Z,58.26
2023-01-08T13:06:27.084Z,60.67
2023-01-08T13:08:56.266Z,61.46
2023-01-08T13:11:29.589Z,62.05
2023-01-08T13:14:01.818Z,62.98
2023-01-08T13:16:42.464Z,63.47
2023-01-08T13:19:24.930Z,64.97
2023-01-08T13:21:55.309Z,64.68
2023-01-08T13:24:31.610Z,62.76
2023-01-08T13:27:23.926Z,64.29
2023-01-08T13:29:51.720Z,62.72
2023-01-08T13:32:27.431Z,62.29
2023-01-08T13:35:22.369Z,62.98
2023-01-08T13:37:51.043Z,62.48
2023-01-08T13:40:52.395Z,63.58
2023-01-08T13:43:22.808Z,64.60
2023-01-08T13:46:06.693Z,64.63
2023-01-08T13:48:42.282Z,64.98
2023-01-08T13:51:34.338Z,65.55
2023-01-08T13:54:15.907Z,65.60
2023-01-08T13:56:44.404Z,66.75
2023-01-08T13:59:28.061Z,66.25
2023-01-08T14:01:56.361Z,67.63
2023-01-08T14:04:24.059Z,68.01
2023-01-08T14:06:52.546Z,67.38
2023-01-08T14:09:23.208Z,68.59
2023-01-08T14:11:52.989Z,68.62
2023-01-08T14:14:23.044Z,68.54
2023-01-08T14:16:52.445Z,69.27
2023-01-08T14:19:22.262Z,69.41
2023-01-08T14:21:55.667Z,69.85
2023-01-08T14:24:23.970Z,69.96
2023-01-08T14:26:52.761Z,70.29
2023-01-08T14:29:22.631Z,73.39
2023-01-08T14:31:51.204Z,74.48
2023-01-08T14:34:19.357Z,75.06
2023-01-08T14:36:51.191Z,76.68
2023-01-08T14:39:25.066Z,73.62
2023-01-08T14:41:55.302Z,73.03
2023-01-08T14:44:32.779Z,73.21
2023-01-08T14:47:16.160Z,73.90
2023-01-08T14:49:43.080Z,73.64
2023-01-08T14:52:13.224Z,75.19
2023-01-08T14:54:48.426Z,76.30
2023-01-08T14:57:17.304Z,76.35
2023-01-08T14:59:53.664Z,77.93
2023-01-08T15:02:25.824Z,78.31
2023-01-08T15:05:12.862Z,78.54
2023-01-08T15:07:47.439Z,81.04
2023-01-08T15:10:41.662Z,81.23
2023-01-08T15:13:24.908Z,82.32
2023-01-08T15:15:56.118Z,82.75
2023-01-08T15:18:25.467Z,82.91
2023-01-08T15:20:53.600Z,83.65
2023-01-08T15:23:33.549Z,85.19
2023-01-08T15:26:02.682Z,86.42
2023-01-08T15:28:30.636Z,87.37
2023-01-08T15:30:58.037Z,85.99
2023-01-08T15:33:28.246Z,87.16
2023-01-08T15:35:57.139Z,87.12
2023-01-08T15:38:24.937Z,86.91
2023-01-08T15:40:52.198Z,87.65
2023-01-08T15:43:23.015Z,88.28
2023-01-08T15:45:50.021Z,88.16
2023-01-08T15:48:16.906Z,87.94
2023-01-08T15:50:48.461Z,88.71
2023-01-08T15:53:20.457Z,87.72
2023-01-08T15:55:51.389Z,87.38
2023-01-08T15:58:20.911Z,86.28
2023-01-08T16:00:48.283Z,86.49
2023-01-08T16:03:16.299Z,86.10
2023-01-08T16:05:43.215Z,86.89
2023-01-08T16:08:11.024Z,86.59
2023-01-08T16:10:39.041Z,87.20
2023-01-08T16:13:12.000Z,86.63
2023-01-08T16:15:40.912Z,87.59
2023-01-08T16:18:07.652Z,89.12
2023-01-08T16:20:35.372Z,88.61
2023-01-08T16:23:03.281Z,88.57
2023-01-08T16:25:31.469Z,88.19
2023-01-08T16:27:58.705Z,89.94
2023-01-08T16:30:25.765Z,88.42
2023-01-08T16:32:55.065Z,86.71
2023-01-08T16:35:23.261Z,87.76
2023-01-08T16:37:50.124Z,87.60
2023-01-08T16:40:17.217Z,87.56
2023-01-08T16:42:43.968Z,87.25
2023-01-08T16:45:12.329Z,86.80
2023-01-08T16:47:40.225Z,85.82
2023-01-08T16:50:12.047Z,87.20
2023-01-08T16:52:39.290Z,87.59
2023-01-08T16:55:07.756Z,87.18
2023-01-08T16:57:34.888Z,87.74
2023-01-08T17:00:01.861Z,86.82
2023-01-08T17:02:28.938Z,86.74
2023-01-08T17:04:55.698Z,86.49
2023-01-08T17:07:24.473Z,86.63
2023-01-08T17:09:51.217Z,85.61
2023-01-08T17:12:22.562Z,86.87
2023-01-08T17:14:50.994Z,85.93
2023-01-08T17:17:18.073Z,86.13
2023-01-08T17:19:44.859Z,87.19
2023-01-08T17:22:11.765Z,88.23
2023-01-08T17:24:40.558Z,87.85
2023-01-08T17:27:07.886Z,88.78
2023-01-08T17:29:34.851Z,86.93
2023-01-08T17:32:02.652Z,87.07
2023-01-08T17:34:29.429Z,88.59
2023-01-08T17:36:56.290Z,87.77
2023-01-08T17:39:24.489Z,88.36
2023-01-08T17:41:53.711Z,87.54
2023-01-08T17:44:21.399Z,88.28
2023-01-08T17:46:49.589Z,88.07
2023-01-08T17:49:18.357Z,89.42
2023-01-08T17:51:46.305Z,88.10
2023-01-08T17:54:14.569Z,87.01
2023-01-08T17:56:42.595Z,87.90
2023-01-08T17:59:16.110Z,87.86
2023-01-08T18:01:43.223Z,87.71
2023-01-08T18:04:11.494Z,90.45
2023-01-08T18:06:38.775Z,88.56
2023-01-08T18:09:09.683Z,87.72
2023-01-08T18:11:36.483Z,88.13
2023-01-08T18:14:07.000Z,88.07
2023-01-08T18:16:35.424Z,88.31
2023-01-08T18:19:03.289Z,89.26
2023-01-08T18:21:30.093Z,88.55
2023-01-08T18:23:57.122Z,87.46
2023-01-08T18:26:25.674Z,88.03
2023-01-08T18:28:52.599Z,87.41
2023-01-08T18:31:19.420Z,88.03
2023-01-08T18:33:52.163Z,89.51
2023-01-08T18:36:20.093Z,88.44
2023-01-08T18:38:47.865Z,88.80
2023-01-08T18:41:16.304Z,89.79
2023-01-08T18:43:46.210Z,89.27
2023-01-08T18:46:14.040Z,91.30
2023-01-08T18:48:40.849Z,88.83
2023-01-08T18:51:09.142Z,89.99
2023-01-08T18:53:36.289Z,91.78
2023-01-08T18:56:03.934Z,92.22
2023-01-08T18:58:31.000Z,90.92
2023-01-08T19:01:03.404Z,91.68
2023-01-08T19:03:30.209Z,90.38
2023-01-08T19:05:59.651Z,90.32
2023-01-08T19:08:27.908Z,89.22
2023-01-08T19:10:55.826Z,90.08
2023-01-08T19:13:22.976Z,89.22
2023-01-08T19:15:54.528Z,88.54
2023-01-08T19:18:21.354Z,88.86
2023-01-08T19:20:50.446Z,89.54
2023-01-08T19:23:17.310Z,89.39
2023-01-08T19:25:46.513Z,89.85
2023-01-08T19:28:13.353Z,90.75
2023-01-08T19:30:41.878Z,90.06
2023-01-08T19:33:09.907Z,89.91
2023-01-08T19:35:38.289Z,92.03
2023-01-08T19:38:05.221Z,89.93
2023-01-08T19:40:32.460Z,90.32
2023-01-08T19:43:00.613Z,90.08
2023-01-08T19:45:28.949Z,89.94
2023-01-08T19:47:55.931Z,90.98
2023-01-08T19:50:24.968Z,91.72
2023-01-08T19:52:52.787Z,92.50
2023-01-08T19:55:22.477Z,92.60
2023-01-08T19:57:50.349Z,92.77
2023-01-08T20:00:24.317Z,94.11
2023-01-08T20:02:52.454Z,93.63
2023-01-08T20:05:20.471Z,93.07
2023-01-08T20:07:47.476Z,93.25
2023-01-08T20:10:15.155Z,93.26
2023-01-08T20:12:45.095Z,93.23
2023-01-08T20:15:14.150Z,92.95
2023-01-08T20:17:42.534Z,92.01
2023-01-08T20:20:12.100Z,92.25
2023-01-08T20:22:39.963Z,92.89
2023-01-08T20:25:07.637Z,92.81
2023-01-08T20:27:34.374Z,92.48
2023-01-08T20:30:03.519Z,93.59
2023-01-08T20:32:30.240Z,92.87
2023-01-08T20:34:58.708Z,93.12
2023-01-08T20:37:25.486Z,93.44
2023-01-08T20:39:53.983Z,94.74
2023-01-08T20:42:32.904Z,95.51
2023-01-08T20:45:01.836Z,94.36
2023-01-08T20:47:28.828Z,93.97
2023-01-08T20:49:58.059Z,94.06
2023-01-08T20:52:26.047Z,93.75
2023-01-08T20:54:52.813Z,94.89
2023-01-08T20:57:19.830Z,95.75
2023-01-08T20:59:48.352Z,96.97
2023-01-08T21:02:15.358Z,98.20
2023-01-08T21:04:42.120Z,98.39
2023-01-08T21:07:12.714Z,99.05
2023-01-08T21:09:40.462Z,99.76
2023-01-08T21:12:10.499Z,100.00
2023-01-08T21:14:38.539Z,99.83
2023-01-08T21:17:05.536Z,97.22
2023-01-08T21:19:33.585Z,96.92
2023-01-08T21:22:00.439Z,97.28
2023-01-08T21:24:28.929Z,98.37
2023-01-08T21:26:56.980Z,100.00
2023-01-08T21:29:23.743Z,100.00
2023-01-08T21:31:50.915Z,100.00
2023-01-08T21:34:17.742Z,100.00
2023-01-08T21:36:44.762Z,100.00
2023-01-08T21:39:11.623Z,100.00
2023-01-08T21:41:40.806Z,100.00
2023-01-08T21:44:12.460Z,100.00
2023-01-08T21:46:39.197Z,100.00
2023-01-08T21:49:06.435Z,100.00
2023-01-08T21:51:33.575Z,100.00
2023-01-08T21:54:05.951Z,100.00
2023-01-08T21:56:32.984Z,100.00
2023-01-08T21:59:01.521Z,100.00
2023-01-08T22:01:28.977Z,100.00
2023-01-08T22:03:57.282Z,100.00
2023-01-08T22:06:24.023Z,100.00
2023-01-08T22:08:52.734Z,100.00
2023-01-08T22:11:21.218Z,100.00
2023-01-08T22:13:49.181Z,100.00
2023-01-08T22:16:17.416Z,100.00
2023-01-08T22:18:46.383Z,100.00
2023-01-08T22:21:13.671Z,100.00
2023-01-08T22:23:40.549Z,100.00
2023-01-08T22:26:10.013Z,100.00
2023-01-08T22:28:38.453Z,100.00
2023-01-08T22:31:07.720Z,100.00
2023-01-08T22:33:36.494Z,100.00
2023-01-08T22:36:03.931Z,100.00
2023-01-08T22:38:31.077Z,100.00
2023-01-08T22:40:58.323Z,100.00
2023-01-08T22:43:25.253Z,100.00
2023-01-08T22:45:54.252Z,100.00
2023-01-08T22:48:21.502Z,100.00
2023-01-08T22:50:51.249Z,100.00
2023-01-08T22:53:18.271Z,100.00
2023-01-08T22:55:47.568Z,100.00
2023-01-08T22:58:15.136Z,100.00
2023-01-08T23:00:42.552Z,100.00
2023-01-08T23:03:09.670Z,100.00
2023-01-08T23:05:37.425Z,100.00
2023-01-08T23:08:06.519Z,100.00
2023-01-08T23:10:34.012Z,100.00
2023-01-08T23:13:01.219Z,100.00
2023-01-08T23:15:29.131Z,100.00
2023-01-08T23:17:57.262Z,100.00
2023-01-08T23:20:27.116Z,100.00
2023-01-08T23:22:56.352Z,100.00
2023-01-08T23:25:24.476Z,100.00
2023-01-08T23:27:52.492Z,100.00
2023-01-08T23:30:19.707Z,100.00
2023-01-08T23:32:46.586Z,100.00
2023-01-08T23:35:13.612Z,100.00
2023-01-08T23:37:41.495Z,100.00
2023-01-08T23:40:10.742Z,100.00
2023-01-08T23:42:40.103Z,100.00
2023-01-08T23:45:09.904Z,100.00
2023-01-08T23:47:38.189Z,100.00
2023-01-08T23:50:05.876Z,100.00
2023-01-08T23:52:33.908Z,100.00
2023-01-08T23:55:00.749Z,100.00
2023-01-08T23:57:27.593Z,100.00
2023-01-08T23:59:56.134Z,100.00
